createdAt,value
2023-05-08T00:00:04.779Z,75.87
2023-05-08T00:00:37.236Z,75.98
2023-05-08T00:01:09.684Z,75.87
2023-05-08T00:01:42.149Z,75.87
2023-05-08T00:02:14.667Z,75.98
2023-05-08T00:02:47.131Z,75.87
2023-05-08T00:03:19.660Z,75.98
2023-05-08T00:03:52.151Z,75.98
2023-05-08T00:04:24.480Z,76.07
2023-05-08T00:04:56.974Z,76.07
2023-05-08T00:05:29.344Z,76.07
2023-05-08T00:06:01.808Z,76.07
2023-05-08T00:06:34.258Z,76.11
2023-05-08T00:07:06.723Z,76.21
2023-05-08T00:07:39.171Z,76.21
2023-05-08T00:08:11.601Z,76.31
2023-05-08T00:08:44.000Z,76.31
2023-05-08T00:09:16.447Z,76.31
2023-05-08T00:09:48.898Z,76.31
2023-05-08T00:10:21.325Z,76.42
2023-05-08T00:10:53.766Z,76.42
2023-05-08T00:11:26.202Z,76.42
2023-05-08T00:11:58.654Z,76.52
2023-05-08T00:12:31.134Z,76.42
2023-05-08T00:13:03.700Z,76.42
2023-05-08T00:13:36.139Z,76.42
2023-05-08T00:14:08.616Z,76.31
2023-05-08T00:14:41.058Z,76.42
2023-05-08T00:15:13.520Z,76.52
2023-05-08T00:15:45.995Z,76.62
2023-05-08T00:16:18.529Z,76.62
2023-05-08T00:16:50.924Z,76.72
2023-05-08T00:17:23.399Z,76.72
2023-05-08T00:17:55.881Z,76.72
2023-05-08T00:18:28.284Z,76.82
2023-05-08T00:19:00.744Z,76.72
2023-05-08T00:19:33.147Z,76.82
2023-05-08T00:20:05.670Z,76.92
2023-05-08T00:20:38.133Z,76.72
2023-05-08T00:21:10.588Z,76.52
2023-05-08T00:21:43.083Z,76.62
2023-05-08T00:22:15.568Z,76.52
2023-05-08T00:22:48.029Z,76.52
2023-05-08T00:23:20.458Z,76.52
2023-05-08T00:23:52.958Z,76.42
2023-05-08T00:24:25.378Z,76.42
2023-05-08T00:24:57.860Z,76.31
2023-05-08T00:25:30.369Z,76.42
2023-05-08T00:26:02.868Z,76.21
2023-05-08T00:26:35.317Z,76.21
2023-05-08T00:27:07.779Z,76.31
2023-05-08T00:27:40.256Z,76.42
2023-05-08T00:28:12.701Z,76.52
2023-05-08T00:28:45.164Z,76.42
2023-05-08T00:29:17.621Z,76.52
2023-05-08T00:29:50.065Z,76.62
2023-05-08T00:30:22.519Z,76.52
2023-05-08T00:30:54.957Z,76.42
2023-05-08T00:31:27.456Z,76.42
2023-05-08T00:31:59.914Z,76.31
2023-05-08T00:32:32.321Z,76.31
2023-05-08T00:33:04.843Z,76.31
2023-05-08T00:33:37.185Z,76.31
2023-05-08T00:34:09.664Z,76.42
2023-05-08T00:34:42.116Z,76.42
2023-05-08T00:35:14.558Z,76.42
2023-05-08T00:35:46.988Z,76.52
2023-05-08T00:36:19.406Z,76.52
2023-05-08T00:36:51.857Z,76.62
2023-05-08T00:37:24.333Z,76.62
2023-05-08T00:37:56.800Z,76.72
2023-05-08T00:38:29.268Z,76.76
2023-05-08T00:39:01.847Z,76.96
2023-05-08T00:39:34.295Z,76.76
2023-05-08T00:40:06.883Z,76.65
2023-05-08T00:40:39.332Z,76.76
2023-05-08T00:41:11.777Z,76.56
2023-05-08T00:41:44.233Z,76.86
2023-05-08T00:42:16.683Z,76.76
2023-05-08T00:42:49.133Z,76.76
2023-05-08T00:43:21.603Z,76.86
2023-05-08T00:43:54.057Z,76.86
2023-05-08T00:44:26.512Z,76.96
2023-05-08T00:44:58.998Z,76.96
2023-05-08T00:45:31.462Z,77.17
2023-05-08T00:46:04.042Z,77.17
2023-05-08T00:46:36.393Z,77.26
2023-05-08T00:47:08.804Z,77.17
2023-05-08T00:47:41.290Z,77.06
2023-05-08T00:48:13.722Z,76.96
2023-05-08T00:48:46.198Z,77.06
2023-05-08T00:49:18.680Z,77.17
2023-05-08T00:49:51.119Z,77.17
2023-05-08T00:50:23.535Z,77.06
2023-05-08T00:50:55.973Z,76.96
2023-05-08T00:51:28.402Z,77.17
2023-05-08T00:52:00.846Z,77.17
2023-05-08T00:52:33.284Z,77.06
2023-05-08T00:53:05.766Z,77.17
2023-05-08T00:53:38.231Z,77.17
2023-05-08T00:54:10.675Z,77.17
2023-05-08T00:54:43.156Z,77.06
2023-05-08T00:55:15.590Z,77.06
2023-05-08T00:55:47.994Z,76.96
2023-05-08T00:56:20.435Z,77.06
2023-05-08T00:56:52.888Z,77.06
2023-05-08T00:57:25.392Z,77.17
2023-05-08T00:57:57.862Z,77.17
2023-05-08T00:58:30.301Z,77.26
2023-05-08T00:59:02.746Z,77.57
2023-05-08T00:59:35.226Z,77.37
2023-05-08T01:00:07.772Z,77.37
2023-05-08T01:00:40.189Z,77.26
2023-05-08T01:01:12.632Z,77.37
2023-05-08T01:01:45.152Z,77.47
2023-05-08T01:02:17.556Z,77.37
2023-05-08T01:02:50.086Z,77.37
2023-05-08T01:03:22.626Z,77.26
2023-05-08T01:03:55.062Z,77.17
2023-05-08T01:04:27.388Z,77.17
2023-05-08T01:04:59.843Z,77.17
2023-05-08T01:05:32.321Z,77.17
2023-05-08T01:06:04.800Z,77.37
2023-05-08T01:06:37.273Z,77.26
2023-05-08T01:07:09.733Z,77.37
2023-05-08T01:07:42.169Z,77.26
2023-05-08T01:08:14.606Z,77.26
2023-05-08T01:08:47.053Z,77.37
2023-05-08T01:09:19.507Z,77.26
2023-05-08T01:09:51.954Z,77.17
2023-05-08T01:10:24.414Z,77.17
2023-05-08T01:10:56.875Z,77.17
2023-05-08T01:11:29.447Z,77.26
2023-05-08T01:12:01.906Z,77.26
2023-05-08T01:12:34.325Z,77.37
2023-05-08T01:13:06.836Z,77.51
2023-05-08T01:13:39.224Z,77.71
2023-05-08T01:14:11.717Z,77.71
2023-05-08T01:14:44.153Z,77.71
2023-05-08T01:15:16.604Z,77.71
2023-05-08T01:15:49.090Z,77.61
2023-05-08T01:16:21.569Z,77.61
2023-05-08T01:16:53.973Z,77.91
2023-05-08T01:17:26.483Z,77.91
2023-05-08T01:17:58.955Z,77.91
2023-05-08T01:18:31.400Z,78.02
2023-05-08T01:19:03.839Z,78.12
2023-05-08T01:19:36.297Z,78.02
2023-05-08T01:20:08.746Z,78.12
2023-05-08T01:20:41.223Z,78.12
2023-05-08T01:21:13.721Z,78.12
2023-05-08T01:21:46.193Z,78.02
2023-05-08T01:22:18.639Z,78.02
2023-05-08T01:22:51.086Z,77.91
2023-05-08T01:23:23.529Z,78.12
2023-05-08T01:23:55.966Z,78.02
2023-05-08T01:24:28.424Z,78.02
2023-05-08T01:25:00.905Z,78.12
2023-05-08T01:25:33.417Z,78.02
2023-05-08T01:26:05.861Z,78.12
2023-05-08T01:26:38.283Z,78.12
2023-05-08T01:27:10.744Z,78.02
2023-05-08T01:27:43.192Z,78.02
2023-05-08T01:28:15.642Z,78.02
2023-05-08T01:28:48.091Z,78.22
2023-05-08T01:29:20.578Z,78.22
2023-05-08T01:29:53.031Z,78.32
2023-05-08T01:30:25.496Z,78.32
2023-05-08T01:30:57.966Z,78.42
2023-05-08T01:31:30.406Z,78.42
2023-05-08T01:32:02.891Z,78.32
2023-05-08T01:32:35.441Z,78.32
2023-05-08T01:33:07.922Z,78.32
2023-05-08T01:33:40.355Z,78.32
2023-05-08T01:34:12.740Z,78.32
2023-05-08T01:34:45.197Z,78.42
2023-05-08T01:35:17.673Z,78.22
2023-05-08T01:35:50.153Z,78.32
2023-05-08T01:36:22.633Z,78.42
2023-05-08T01:36:55.056Z,78.42
2023-05-08T01:37:27.568Z,78.53
2023-05-08T01:38:00.042Z,78.32
2023-05-08T01:38:32.486Z,78.53
2023-05-08T01:39:04.912Z,78.53
2023-05-08T01:39:37.366Z,78.53
2023-05-08T01:40:09.973Z,78.63
2023-05-08T01:40:42.239Z,78.66
2023-05-08T01:41:14.698Z,78.77
2023-05-08T01:41:47.166Z,78.87
2023-05-08T01:42:19.639Z,78.97
2023-05-08T01:42:52.098Z,79.07
2023-05-08T01:43:24.559Z,79.17
2023-05-08T01:43:57.019Z,79.38
2023-05-08T01:44:29.483Z,79.27
2023-05-08T01:45:01.936Z,79.07
2023-05-08T01:45:34.398Z,79.27
2023-05-08T01:46:06.841Z,79.38
2023-05-08T01:46:39.337Z,79.27
2023-05-08T01:47:11.778Z,79.17
2023-05-08T01:47:44.255Z,79.17
2023-05-08T01:48:16.680Z,79.17
2023-05-08T01:48:49.118Z,79.17
2023-05-08T01:49:21.552Z,79.17
2023-05-08T01:49:54.029Z,79.27
2023-05-08T01:50:26.472Z,79.38
2023-05-08T01:50:58.920Z,79.38
2023-05-08T01:51:31.433Z,79.48
2023-05-08T01:52:03.866Z,79.38
2023-05-08T01:52:36.316Z,79.38
2023-05-08T01:53:08.777Z,79.48
2023-05-08T01:53:41.269Z,79.58
2023-05-08T01:54:13.712Z,79.58
2023-05-08T01:54:46.169Z,79.38
2023-05-08T01:55:18.630Z,79.38
2023-05-08T01:55:51.070Z,79.38
2023-05-08T01:56:23.519Z,79.38
2023-05-08T01:56:55.991Z,79.48
2023-05-08T01:57:28.434Z,79.48
2023-05-08T01:58:00.881Z,79.52
2023-05-08T01:58:33.324Z,79.62
2023-05-08T01:59:05.756Z,79.82
2023-05-08T01:59:38.248Z,79.93
2023-05-08T02:00:10.870Z,79.93
2023-05-08T02:00:43.156Z,80.02
2023-05-08T02:01:15.636Z,80.02
2023-05-08T02:01:48.026Z,80.02
2023-05-08T02:02:20.513Z,80.02
2023-05-08T02:02:53.011Z,80.02
2023-05-08T02:03:25.407Z,80.23
2023-05-08T02:03:57.870Z,80.33
2023-05-08T02:04:30.278Z,80.33
2023-05-08T02:05:02.737Z,80.33
2023-05-08T02:05:35.156Z,80.47
2023-05-08T02:06:07.635Z,80.54
2023-05-08T02:06:40.113Z,80.47
2023-05-08T02:07:12.544Z,80.47
2023-05-08T02:07:45.000Z,80.47
2023-05-08T02:08:17.482Z,80.47
2023-05-08T02:08:49.929Z,80.57
2023-05-08T02:09:22.423Z,80.78
2023-05-08T02:09:54.900Z,80.57
2023-05-08T02:10:27.372Z,80.57
2023-05-08T02:10:59.839Z,80.57
2023-05-08T02:11:32.273Z,80.57
2023-05-08T02:12:04.770Z,80.68
2023-05-08T02:12:37.267Z,80.78
2023-05-08T02:13:09.845Z,80.78
2023-05-08T02:13:42.191Z,80.98
2023-05-08T02:14:14.633Z,80.88
2023-05-08T02:14:47.100Z,80.88
2023-05-08T02:15:19.565Z,80.78
2023-05-08T02:15:52.008Z,80.68
2023-05-08T02:16:24.488Z,80.68
2023-05-08T02:16:57.071Z,80.78
2023-05-08T02:17:29.394Z,80.98
2023-05-08T02:18:01.880Z,80.98
2023-05-08T02:18:34.302Z,80.98
2023-05-08T02:19:06.758Z,81.09
2023-05-08T02:19:39.247Z,81.18
2023-05-08T02:20:11.874Z,80.98
2023-05-08T02:20:44.150Z,81.18
2023-05-08T02:21:16.620Z,81.09
2023-05-08T02:21:49.089Z,81.29
2023-05-08T02:22:21.574Z,81.49
2023-05-08T02:22:53.989Z,81.39
2023-05-08T02:23:26.455Z,81.29
2023-05-08T02:23:58.930Z,81.39
2023-05-08T02:24:31.381Z,81.49
2023-05-08T02:25:03.826Z,81.49
2023-05-08T02:25:36.276Z,81.39
2023-05-08T02:26:08.769Z,81.39
2023-05-08T02:26:41.221Z,81.43
2023-05-08T02:27:13.767Z,81.73
2023-05-08T02:27:46.249Z,81.73
2023-05-08T02:28:18.728Z,81.49
2023-05-08T02:28:51.208Z,81.49
2023-05-08T02:29:23.655Z,81.49
2023-05-08T02:29:56.137Z,81.49
2023-05-08T02:30:28.573Z,81.59
2023-05-08T02:31:01.095Z,81.59
2023-05-08T02:31:33.625Z,81.73
2023-05-08T02:32:06.145Z,81.73
2023-05-08T02:32:38.655Z,81.84
2023-05-08T02:33:11.154Z,81.84
2023-05-08T02:33:43.537Z,81.70
2023-05-08T02:34:16.000Z,81.49
2023-05-08T02:35:01.867Z,81.49
2023-05-08T02:35:20.936Z,81.53
2023-05-08T02:35:53.380Z,81.73
2023-05-08T02:36:25.871Z,81.84
2023-05-08T02:36:58.314Z,82.04
2023-05-08T02:37:30.777Z,81.94
2023-05-08T02:38:03.235Z,81.84
2023-05-08T02:38:35.687Z,81.94
2023-05-08T02:39:08.130Z,82.04
2023-05-08T02:39:40.602Z,82.04
2023-05-08T02:40:13.299Z,82.04
2023-05-08T02:40:45.523Z,82.04
2023-05-08T02:41:18.031Z,82.14
2023-05-08T02:41:50.479Z,82.24
2023-05-08T02:42:22.904Z,82.04
2023-05-08T02:42:55.454Z,82.14
2023-05-08T02:43:27.814Z,82.14
2023-05-08T02:44:00.284Z,82.04
2023-05-08T02:44:32.710Z,82.04
2023-05-08T02:45:05.211Z,81.94
2023-05-08T02:45:37.680Z,81.94
2023-05-08T02:46:10.217Z,81.94
2023-05-08T02:46:42.588Z,81.94
2023-05-08T02:47:15.050Z,81.94
2023-05-08T02:47:47.556Z,81.94
2023-05-08T02:48:19.988Z,82.04
2023-05-08T02:48:52.408Z,81.94
2023-05-08T02:49:24.884Z,81.84
2023-05-08T02:49:57.343Z,81.80
2023-05-08T02:50:29.816Z,81.80
2023-05-08T02:51:02.271Z,81.84
2023-05-08T02:51:34.725Z,81.94
2023-05-08T02:52:07.194Z,81.94
2023-05-08T02:52:39.680Z,81.94
2023-05-08T02:53:12.067Z,81.94
2023-05-08T02:53:44.503Z,82.14
2023-05-08T02:54:16.944Z,82.14
2023-05-08T02:54:49.385Z,82.14
2023-05-08T02:55:21.860Z,82.04
2023-05-08T02:55:54.294Z,82.04
2023-05-08T02:56:26.743Z,82.14
2023-05-08T02:56:59.485Z,82.35
2023-05-08T02:57:31.927Z,82.35
2023-05-08T02:58:04.355Z,82.45
2023-05-08T02:58:36.818Z,82.45
2023-05-08T02:59:09.260Z,82.45
2023-05-08T02:59:41.768Z,82.45
2023-05-08T03:00:14.375Z,82.45
2023-05-08T03:00:46.639Z,82.45
2023-05-08T03:01:19.096Z,82.45
2023-05-08T03:01:51.636Z,82.45
2023-05-08T03:02:24.094Z,82.55
2023-05-08T03:02:56.537Z,82.65
2023-05-08T03:03:29.100Z,82.75
2023-05-08T03:04:01.469Z,82.75
2023-05-08T03:04:33.879Z,82.86
2023-05-08T03:05:06.331Z,82.86
2023-05-08T03:05:38.803Z,82.75
2023-05-08T03:06:11.283Z,82.65
2023-05-08T03:06:43.737Z,82.86
2023-05-08T03:07:16.203Z,82.75
2023-05-08T03:07:48.667Z,82.65
2023-05-08T03:08:21.115Z,82.55
2023-05-08T03:08:53.574Z,82.45
2023-05-08T03:09:26.017Z,82.55
2023-05-08T03:09:58.468Z,82.65
2023-05-08T03:10:30.917Z,82.65
2023-05-08T03:11:03.368Z,82.55
2023-05-08T03:11:35.791Z,82.55
2023-05-08T03:12:08.228Z,82.35
2023-05-08T03:12:42.166Z,82.35
2023-05-08T03:13:13.176Z,82.35
2023-05-08T03:13:45.596Z,82.35
2023-05-08T03:14:18.052Z,82.65
2023-05-08T03:14:50.542Z,82.75
2023-05-08T03:15:23.033Z,82.65
2023-05-08T03:15:55.518Z,82.55
2023-05-08T03:16:28.092Z,82.45
2023-05-08T03:17:00.374Z,82.35
2023-05-08T03:17:32.901Z,82.45
2023-05-08T03:18:05.401Z,82.45
2023-05-08T03:18:37.780Z,82.24
2023-05-08T03:19:10.244Z,82.35
2023-05-08T03:19:42.722Z,82.45
2023-05-08T03:20:15.309Z,82.45
2023-05-08T03:20:47.623Z,82.45
2023-05-08T03:21:20.049Z,82.65
2023-05-08T03:21:52.573Z,82.55
2023-05-08T03:22:25.041Z,82.59
2023-05-08T03:22:57.491Z,82.69
2023-05-08T03:23:29.947Z,82.75
2023-05-08T03:24:02.452Z,83.00
2023-05-08T03:24:34.945Z,82.89
2023-05-08T03:25:07.389Z,83.00
2023-05-08T03:25:39.834Z,82.89
2023-05-08T03:26:12.298Z,82.69
2023-05-08T03:26:44.780Z,82.79
2023-05-08T03:27:17.264Z,82.79
2023-05-08T03:27:49.686Z,83.00
2023-05-08T03:28:22.153Z,83.00
2023-05-08T03:28:54.615Z,83.00
2023-05-08T03:29:27.066Z,83.00
2023-05-08T03:29:59.549Z,83.00
2023-05-08T03:30:32.029Z,83.20
2023-05-08T03:31:04.505Z,83.30
2023-05-08T03:31:36.966Z,83.20
2023-05-08T03:32:09.407Z,83.40
2023-05-08T03:32:41.914Z,83.51
2023-05-08T03:33:14.302Z,83.81
2023-05-08T03:33:46.762Z,83.71
2023-05-08T03:34:19.223Z,83.61
2023-05-08T03:34:51.679Z,83.51
2023-05-08T03:35:24.130Z,83.40
2023-05-08T03:35:56.590Z,83.40
2023-05-08T03:36:29.039Z,83.40
2023-05-08T03:37:01.510Z,83.51
2023-05-08T03:37:33.915Z,83.51
2023-05-08T03:38:06.360Z,83.40
2023-05-08T03:38:38.827Z,83.51
2023-05-08T03:39:11.286Z,83.51
2023-05-08T03:39:43.774Z,83.51
2023-05-08T03:40:16.223Z,83.61
2023-05-08T03:40:48.690Z,83.81
2023-05-08T03:41:21.155Z,83.81
2023-05-08T03:41:53.596Z,83.71
2023-05-08T03:42:26.046Z,83.71
2023-05-08T03:42:58.519Z,83.61
2023-05-08T03:43:30.980Z,83.71
2023-05-08T03:44:03.455Z,83.81
2023-05-08T03:44:35.907Z,83.71
2023-05-08T03:45:08.408Z,83.92
2023-05-08T03:45:40.877Z,83.81
2023-05-08T03:46:13.336Z,83.92
2023-05-08T03:46:45.842Z,83.81
2023-05-08T03:47:18.235Z,83.81
2023-05-08T03:47:50.712Z,83.71
2023-05-08T03:48:23.116Z,83.61
2023-05-08T03:48:55.579Z,83.40
2023-05-08T03:49:28.048Z,83.51
2023-05-08T03:50:00.515Z,83.40
2023-05-08T03:50:32.998Z,83.51
2023-05-08T03:51:05.397Z,83.51
2023-05-08T03:51:37.865Z,83.51
2023-05-08T03:52:10.303Z,83.51
2023-05-08T03:52:42.769Z,83.51
2023-05-08T03:53:15.260Z,83.71
2023-05-08T03:53:47.692Z,83.92
2023-05-08T03:54:20.165Z,83.71
2023-05-08T03:54:52.628Z,83.61
2023-05-08T03:55:25.087Z,83.61
2023-05-08T03:55:57.564Z,83.61
2023-05-08T03:56:30.039Z,83.51
2023-05-08T03:57:02.498Z,83.40
2023-05-08T03:57:34.938Z,83.40
2023-05-08T03:58:07.402Z,83.61
2023-05-08T03:58:39.863Z,83.51
2023-05-08T03:59:12.375Z,83.61
2023-05-08T03:59:44.829Z,83.61
2023-05-08T04:00:17.326Z,83.61
2023-05-08T04:00:49.752Z,83.61
2023-05-08T04:01:22.223Z,83.51
2023-05-08T04:01:54.757Z,83.40
2023-05-08T04:02:27.258Z,83.30
2023-05-08T04:02:59.714Z,83.30
2023-05-08T04:03:32.241Z,83.20
2023-05-08T04:04:04.764Z,83.30
2023-05-08T04:04:37.177Z,83.26
2023-05-08T04:05:09.625Z,83.20
2023-05-08T04:05:42.099Z,83.20
2023-05-08T04:06:14.549Z,83.10
2023-05-08T04:06:50.618Z,83.20
2023-05-08T04:07:19.459Z,83.06
2023-05-08T04:07:51.911Z,83.16
2023-05-08T04:08:24.371Z,83.20
2023-05-08T04:08:56.845Z,83.00
2023-05-08T04:09:29.314Z,83.00
2023-05-08T04:10:01.742Z,83.10
2023-05-08T04:10:34.243Z,83.30
2023-05-08T04:11:06.670Z,83.26
2023-05-08T04:11:39.144Z,83.16
2023-05-08T04:12:11.564Z,82.96
2023-05-08T04:12:44.038Z,82.96
2023-05-08T04:13:16.463Z,82.75
2023-05-08T04:13:48.933Z,82.75
2023-05-08T04:14:21.403Z,82.75
2023-05-08T04:14:55.677Z,82.55
2023-05-08T04:15:26.297Z,82.55
2023-05-08T04:15:58.804Z,82.45
2023-05-08T04:16:31.339Z,82.35
2023-05-08T04:17:03.827Z,82.45
2023-05-08T04:17:36.288Z,82.35
2023-05-08T04:18:08.776Z,82.45
2023-05-08T04:18:41.148Z,82.45
2023-05-08T04:19:13.592Z,82.35
2023-05-08T04:19:46.073Z,82.45
2023-05-08T04:20:18.540Z,82.55
2023-05-08T04:20:50.987Z,82.65
2023-05-08T04:21:23.458Z,82.75
2023-05-08T04:21:55.907Z,82.65
2023-05-08T04:22:28.371Z,82.65
2023-05-08T04:23:00.813Z,82.55
2023-05-08T04:23:33.301Z,82.45
2023-05-08T04:24:05.725Z,82.61
2023-05-08T04:24:38.197Z,82.61
2023-05-08T04:25:11.025Z,82.41
2023-05-08T04:25:43.144Z,82.21
2023-05-08T04:26:16.472Z,82.21
2023-05-08T04:26:48.040Z,82.21
2023-05-08T04:27:20.490Z,82.10
2023-05-08T04:27:52.959Z,82.10
2023-05-08T04:28:25.446Z,82.00
2023-05-08T04:28:57.884Z,82.00
2023-05-08T04:29:30.342Z,82.00
2023-05-08T04:30:02.782Z,81.90
2023-05-08T04:30:35.211Z,81.90
2023-05-08T04:31:07.691Z,81.90
2023-05-08T04:31:40.135Z,82.00
2023-05-08T04:32:12.706Z,81.90
2023-05-08T04:32:46.729Z,81.90
2023-05-08T04:33:17.564Z,81.80
2023-05-08T04:33:50.021Z,81.80
2023-05-08T04:34:22.528Z,81.90
2023-05-08T04:34:54.990Z,81.70
2023-05-08T04:35:27.456Z,81.59
2023-05-08T04:35:59.946Z,81.59
2023-05-08T04:36:32.415Z,81.49
2023-05-08T04:37:04.905Z,81.39
2023-05-08T04:37:37.350Z,81.25
2023-05-08T04:38:09.847Z,81.15
2023-05-08T04:38:49.850Z,81.15
2023-05-08T04:39:22.401Z,81.25
2023-05-08T04:39:54.840Z,81.15
2023-05-08T04:40:27.339Z,81.15
2023-05-08T04:41:00.596Z,81.25
2023-05-08T04:41:33.163Z,81.25
2023-05-08T04:42:05.624Z,81.15
2023-05-08T04:42:38.100Z,80.94
2023-05-08T04:43:10.610Z,80.84
2023-05-08T04:43:43.849Z,80.84
2023-05-08T04:44:16.301Z,80.84
2023-05-08T04:44:48.717Z,80.84
2023-05-08T04:45:21.202Z,80.74
2023-05-08T04:45:53.703Z,80.84
2023-05-08T04:46:26.238Z,80.74
2023-05-08T04:46:58.613Z,80.84
2023-05-08T04:47:32.126Z,80.84
2023-05-08T04:48:04.647Z,80.84
2023-05-08T04:48:37.071Z,80.84
2023-05-08T04:49:09.541Z,80.84
2023-05-08T04:49:42.030Z,80.84
2023-05-08T04:50:15.086Z,80.84
2023-05-08T04:50:48.313Z,80.74
2023-05-08T04:51:21.556Z,80.74
2023-05-08T04:51:54.830Z,80.64
2023-05-08T04:52:27.324Z,80.64
2023-05-08T04:52:59.830Z,80.60
2023-05-08T04:53:32.340Z,80.64
2023-05-08T04:54:05.561Z,80.70
2023-05-08T04:54:38.591Z,80.50
2023-05-08T04:55:11.225Z,80.29
2023-05-08T04:55:44.359Z,80.19
2023-05-08T04:56:16.883Z,79.99
2023-05-08T04:56:50.136Z,79.99
2023-05-08T04:57:22.704Z,79.85
2023-05-08T04:57:55.181Z,79.75
2023-05-08T04:58:27.751Z,79.75
2023-05-08T04:59:00.234Z,79.75
2023-05-08T04:59:32.720Z,79.64
2023-05-08T05:00:05.215Z,79.54
2023-05-08T05:00:37.709Z,79.44
2023-05-08T05:01:10.212Z,79.10
2023-05-08T05:01:43.378Z,78.89
2023-05-08T05:02:15.831Z,78.89
2023-05-08T05:02:48.924Z,78.89
2023-05-08T05:03:21.321Z,78.59
2023-05-08T05:03:54.344Z,78.45
2023-05-08T05:04:26.790Z,78.45
2023-05-08T05:04:59.814Z,78.45
2023-05-08T05:05:33.074Z,77.94
2023-05-08T05:06:05.558Z,77.74
2023-05-08T05:06:38.029Z,77.64
2023-05-08T05:07:11.372Z,77.44
2023-05-08T05:07:43.821Z,77.23
2023-05-08T05:08:16.811Z,77.44
2023-05-08T05:08:50.846Z,77.53
2023-05-08T05:09:23.337Z,77.53
2023-05-08T05:09:55.806Z,77.60
2023-05-08T05:10:28.350Z,77.29
2023-05-08T05:11:00.842Z,77.20
2023-05-08T05:11:34.104Z,76.99
2023-05-08T05:12:06.623Z,76.68
2023-05-08T05:12:40.154Z,76.59
2023-05-08T05:13:12.613Z,76.48
2023-05-08T05:13:45.019Z,76.38
2023-05-08T05:14:18.070Z,76.38
2023-05-08T05:14:50.544Z,76.55
2023-05-08T05:15:23.092Z,76.45
2023-05-08T05:15:55.551Z,76.34
2023-05-08T05:16:28.123Z,76.25
2023-05-08T05:17:00.526Z,76.25
2023-05-08T05:17:33.912Z,76.14
2023-05-08T05:18:06.415Z,76.14
2023-05-08T05:18:39.818Z,75.94
2023-05-08T05:19:13.074Z,76.04
2023-05-08T05:19:46.119Z,76.04
2023-05-08T05:20:18.569Z,75.80
2023-05-08T05:20:51.060Z,75.70
2023-05-08T05:21:23.563Z,75.70
2023-05-08T05:21:56.132Z,75.40
2023-05-08T05:22:28.668Z,75.29
2023-05-08T05:23:01.896Z,75.36
2023-05-08T05:23:35.047Z,74.95
2023-05-08T05:24:07.581Z,74.65
2023-05-08T05:24:40.075Z,74.75
2023-05-08T05:25:12.955Z,74.75
2023-05-08T05:25:45.003Z,74.85
2023-05-08T05:26:17.501Z,74.75
2023-05-08T05:26:49.973Z,74.85
2023-05-08T05:27:22.525Z,74.95
2023-05-08T05:27:54.997Z,74.92
2023-05-08T05:28:27.460Z,74.71
2023-05-08T05:29:00.613Z,74.10
2023-05-08T05:29:33.091Z,73.90
2023-05-08T05:30:05.594Z,74.14
2023-05-08T05:30:38.611Z,74.10
2023-05-08T05:31:11.829Z,74.04
2023-05-08T05:31:44.457Z,74.04
2023-05-08T05:32:16.812Z,74.14
2023-05-08T05:32:49.388Z,74.24
2023-05-08T05:33:21.828Z,74.34
2023-05-08T05:33:55.094Z,74.44
2023-05-08T05:34:27.694Z,74.55
2023-05-08T05:35:01.097Z,74.55
2023-05-08T05:35:33.638Z,74.58
2023-05-08T05:36:06.822Z,74.88
2023-05-08T05:36:39.357Z,74.99
2023-05-08T05:37:11.854Z,75.29
2023-05-08T05:37:45.318Z,75.40
2023-05-08T05:38:19.367Z,75.49
2023-05-08T05:38:51.831Z,75.19
2023-05-08T05:39:25.324Z,75.29
2023-05-08T05:39:57.866Z,75.40
2023-05-08T05:40:30.321Z,75.49
2023-05-08T05:41:02.803Z,75.60
2023-05-08T05:41:35.857Z,75.63
2023-05-08T05:42:08.369Z,75.73
2023-05-08T05:42:40.840Z,75.84
2023-05-08T05:43:13.345Z,75.94
2023-05-08T05:43:45.866Z,76.14
2023-05-08T05:44:18.342Z,76.10
2023-05-08T05:44:50.826Z,75.90
2023-05-08T05:45:23.348Z,75.84
2023-05-08T05:45:55.831Z,75.80
2023-05-08T05:46:29.398Z,76.04
2023-05-08T05:47:01.811Z,76.04
2023-05-08T05:47:34.407Z,76.25
2023-05-08T05:48:07.904Z,76.25
2023-05-08T05:48:40.341Z,76.14
2023-05-08T05:49:12.843Z,76.04
2023-05-08T05:49:46.920Z,76.14
2023-05-08T05:50:19.368Z,76.04
2023-05-08T05:50:52.819Z,76.04
2023-05-08T05:51:25.863Z,76.04
2023-05-08T05:51:59.822Z,76.14
2023-05-08T05:52:32.326Z,76.25
2023-05-08T05:53:05.375Z,76.34
2023-05-08T05:53:37.932Z,76.45
2023-05-08T05:54:10.465Z,76.45
2023-05-08T05:54:43.862Z,76.34
2023-05-08T05:55:16.315Z,76.25
2023-05-08T05:55:49.329Z,76.14
2023-05-08T05:56:21.809Z,76.25
2023-05-08T05:56:54.833Z,76.45
2023-05-08T05:57:27.355Z,76.45
2023-05-08T05:58:01.325Z,76.45
2023-05-08T05:58:34.559Z,76.45
2023-05-08T05:59:07.069Z,76.55
2023-05-08T05:59:39.573Z,76.55
2023-05-08T06:00:12.055Z,76.45
2023-05-08T06:00:44.555Z,76.55
2023-05-08T06:01:17.632Z,76.51
2023-05-08T06:01:50.150Z,76.41
2023-05-08T06:02:23.008Z,76.21
2023-05-08T06:02:55.528Z,76.01
2023-05-08T06:03:28.457Z,76.01
2023-05-08T06:04:00.866Z,75.70
2023-05-08T06:04:33.358Z,75.46
2023-05-08T06:05:05.752Z,75.56
2023-05-08T06:05:38.270Z,75.56
2023-05-08T06:06:10.830Z,75.46
2023-05-08T06:06:43.846Z,75.26
2023-05-08T06:07:17.107Z,75.36
2023-05-08T06:07:49.676Z,75.46
2023-05-08T06:08:22.826Z,75.26
2023-05-08T06:08:55.308Z,75.26
2023-05-08T06:09:28.328Z,75.16
2023-05-08T06:10:01.566Z,75.16
2023-05-08T06:10:34.063Z,75.26
2023-05-08T06:11:06.547Z,75.26
2023-05-08T06:11:39.025Z,75.36
2023-05-08T06:12:12.082Z,75.46
2023-05-08T06:12:44.652Z,75.36
2023-05-08T06:13:17.105Z,75.16
2023-05-08T06:13:50.481Z,75.36
2023-05-08T06:14:22.049Z,75.36
2023-05-08T06:14:55.834Z,75.36
2023-05-08T06:15:29.091Z,75.56
2023-05-08T06:16:01.642Z,75.67
2023-05-08T06:16:34.187Z,75.76
2023-05-08T06:17:07.400Z,75.76
2023-05-08T06:17:39.862Z,75.56
2023-05-08T06:18:13.080Z,75.46
2023-05-08T06:18:46.056Z,75.22
2023-05-08T06:19:19.830Z,74.92
2023-05-08T06:19:53.852Z,74.82
2023-05-08T06:20:26.626Z,74.82
2023-05-08T06:20:58.831Z,74.82
2023-05-08T06:21:31.839Z,74.71
2023-05-08T06:22:05.070Z,74.71
2023-05-08T06:22:37.578Z,74.71
2023-05-08T06:23:10.587Z,74.71
2023-05-08T06:23:43.831Z,74.71
2023-05-08T06:24:16.309Z,74.71
2023-05-08T06:24:49.590Z,74.68
2023-05-08T06:25:22.657Z,74.48
2023-05-08T06:25:55.135Z,74.27
2023-05-08T06:26:27.697Z,74.07
2023-05-08T06:27:00.863Z,74.27
2023-05-08T06:27:33.527Z,74.38
2023-05-08T06:28:06.839Z,74.38
2023-05-08T06:28:39.351Z,74.58
2023-05-08T06:29:12.605Z,74.68
2023-05-08T06:29:45.618Z,74.68
2023-05-08T06:30:18.354Z,74.58
2023-05-08T06:30:51.634Z,74.48
2023-05-08T06:31:24.174Z,74.48
2023-05-08T06:31:56.561Z,74.48
2023-05-08T06:32:29.926Z,74.38
2023-05-08T06:33:02.986Z,74.24
2023-05-08T06:33:35.837Z,74.04
2023-05-08T06:34:09.091Z,73.83
2023-05-08T06:34:42.359Z,73.93
2023-05-08T06:35:15.561Z,74.04
2023-05-08T06:35:48.601Z,74.04
2023-05-08T06:36:21.579Z,74.04
2023-05-08T06:36:54.048Z,73.93
2023-05-08T06:37:26.523Z,73.93
2023-05-08T06:37:59.637Z,73.93
2023-05-08T06:38:32.887Z,73.83
2023-05-08T06:39:05.375Z,73.83
2023-05-08T06:39:37.828Z,73.63
2023-05-08T06:40:12.699Z,73.53
2023-05-08T06:40:43.279Z,73.70
2023-05-08T06:41:17.354Z,73.60
2023-05-08T06:41:51.373Z,73.60
2023-05-08T06:42:23.918Z,73.60
2023-05-08T06:42:56.430Z,73.60
2023-05-08T06:43:29.838Z,73.49
2023-05-08T06:44:02.393Z,73.60
2023-05-08T06:44:34.924Z,73.70
2023-05-08T06:45:08.106Z,73.63
2023-05-08T06:45:41.358Z,73.73
2023-05-08T06:46:14.628Z,74.04
2023-05-08T06:46:48.878Z,74.04
2023-05-08T06:47:21.328Z,74.24
2023-05-08T06:47:54.425Z,74.95
2023-05-08T06:48:27.403Z,74.85
2023-05-08T06:49:00.854Z,74.95
2023-05-08T06:49:34.089Z,75.12
2023-05-08T06:50:07.347Z,75.32
2023-05-08T06:50:39.831Z,75.01
2023-05-08T06:51:12.842Z,74.81
2023-05-08T06:51:46.110Z,74.57
2023-05-08T06:52:19.354Z,74.57
2023-05-08T06:52:52.614Z,74.44
2023-05-08T06:53:25.371Z,74.44
2023-05-08T06:53:58.630Z,74.13
2023-05-08T06:54:32.341Z,73.19
2023-05-08T06:55:04.810Z,72.48
2023-05-08T06:55:37.304Z,72.48
2023-05-08T06:56:10.608Z,72.48
2023-05-08T06:56:43.116Z,72.38
2023-05-08T06:57:16.852Z,71.84
2023-05-08T06:57:50.112Z,71.73
2023-05-08T06:58:23.122Z,71.64
2023-05-08T06:59:04.865Z,71.64
2023-05-08T06:59:28.876Z,71.44